createdAt,value
2019-02-26T00:04:54.085Z,38.53
2019-02-26T00:10:02.569Z,36.83
2019-02-26T00:15:12.853Z,34.57
2019-02-26T00:20:19.504Z,36.00
2019-02-26T00:25:26.382Z,37.37
2019-02-26T00:30:35.583Z,39.57
2019-02-26T00:35:42.171Z,34.83
2019-02-26T00:40:49.258Z,36.47
2019-02-26T00:45:58.290Z,36.73
2019-02-26T00:51:04.457Z,41.63
2019-02-26T00:56:11.765Z,35.57
2019-02-26T01:01:21.195Z,34.30
2019-02-26T01:06:29.429Z,35.93
2019-02-26T01:11:37.169Z,33.00
2019-02-26T01:16:45.940Z,32.27
2019-02-26T01:21:52.715Z,30.90
2019-02-26T01:26:59.728Z,29.53
2019-02-26T01:32:08.897Z,35.67
2019-02-26T01:37:28.218Z,33.93
2019-02-26T01:42:36.688Z,32.30
2019-02-26T01:47:46.229Z,31.43
2019-02-26T01:52:52.344Z,33.03
2019-02-26T01:57:59.882Z,28.80
2019-02-26T02:03:06.824Z,33.53
2019-02-26T02:08:32.070Z,27.37
2019-02-26T02:13:41.433Z,35.00
2019-02-26T02:18:48.841Z,28.83
2019-02-26T02:23:55.016Z,32.13
2019-02-26T02:29:24.530Z,31.93
2019-02-26T02:34:32.974Z,33.67
2019-02-26T02:39:40.262Z,33.77
2019-02-26T02:44:46.898Z,28.90
2019-02-26T02:49:55.446Z,27.27
2019-02-26T02:55:04.403Z,25.47
2019-02-26T03:00:16.047Z,27.27
2019-02-26T03:05:23.327Z,24.90
2019-02-26T03:10:31.690Z,30.33
2019-02-26T03:15:38.664Z,26.10
2019-02-26T03:20:44.723Z,26.53
2019-02-26T03:25:52.890Z,29.70
2019-02-26T03:30:59.040Z,23.47
2019-02-26T03:36:07.941Z,26.57
2019-02-26T03:41:13.805Z,28.73
2019-02-26T03:46:20.318Z,25.47
2019-02-26T03:51:26.830Z,26.43
2019-02-26T03:56:33.768Z,25.57
2019-02-26T04:01:40.640Z,24.87
2019-02-26T04:06:47.224Z,24.00
2019-02-26T04:11:55.420Z,27.20
2019-02-26T04:17:04.134Z,20.70
2019-02-26T04:22:30.642Z,23.00
2019-02-26T04:27:51.416Z,24.57
2019-02-26T04:33:53.711Z,21.57
2019-02-26T04:39:34.487Z,25.93
2019-02-26T04:45:24.734Z,28.73
2019-02-26T04:50:44.574Z,27.13
2019-02-26T04:55:51.861Z,27.17
2019-02-26T05:00:58.453Z,29.60
2019-02-26T05:06:07.857Z,27.97
2019-02-26T05:11:17.449Z,30.43
2019-02-26T05:16:26.051Z,27.73
2019-02-26T05:21:31.905Z,31.17
2019-02-26T05:26:38.135Z,31.97
2019-02-26T05:31:44.133Z,29.20
2019-02-26T05:36:50.092Z,23.70
2019-02-26T05:42:00.213Z,31.20
2019-02-26T05:47:05.092Z,29.57
2019-02-26T05:52:13.124Z,28.33
2019-02-26T05:57:27.631Z,26.33
2019-02-26T06:02:29.360Z,29.07
2019-02-26T06:07:38.584Z,27.67
2019-02-26T06:12:46.631Z,27.63
2019-02-26T06:17:53.496Z,28.67
2019-02-26T06:23:00.118Z,26.67
2019-02-26T06:28:07.707Z,30.90
2019-02-26T06:33:16.396Z,24.73
2019-02-26T06:38:25.867Z,29.40
2019-02-26T06:43:35.486Z,31.23
2019-02-26T06:48:40.716Z,34.67
2019-02-26T06:53:49.260Z,27.17
2019-02-26T06:58:55.258Z,28.07
2019-02-26T07:04:01.982Z,40.67
2019-02-26T07:09:10.832Z,33.53
2019-02-26T07:14:17.326Z,30.60
2019-02-26T07:19:25.870Z,29.83
2019-02-26T07:25:07.842Z,35.17
2019-02-26T07:30:14.781Z,30.40
2019-02-26T07:35:22.414Z,29.47
2019-02-26T07:40:30.567Z,29.20
2019-02-26T07:45:37.726Z,27.20
2019-02-26T07:50:46.336Z,32.43
2019-02-26T07:55:53.951Z,33.90
2019-02-26T08:01:00.862Z,36.07
2019-02-26T08:06:09.790Z,42.17
2019-02-26T08:11:17.178Z,55.20
2019-02-26T08:16:25.815Z,32.13
2019-02-26T08:21:32.608Z,35.93
2019-02-26T08:26:40.536Z,27.60
2019-02-26T08:31:49.380Z,26.17
2019-02-26T08:36:55.470Z,22.97
2019-02-26T08:42:10.072Z,30.63
2019-02-26T08:47:19.245Z,46.97
2019-02-26T08:52:26.914Z,34.67
2019-02-26T08:57:33.890Z,30.33
2019-02-26T09:02:59.548Z,29.63
2019-02-26T09:08:08.383Z,27.87
2019-02-26T09:13:16.387Z,32.10
2019-02-26T09:18:27.439Z,35.07
2019-02-26T09:23:33.476Z,34.60
2019-02-26T09:28:41.855Z,36.53
2019-02-26T09:33:49.259Z,37.60
2019-02-26T09:38:55.227Z,37.20
2019-02-26T09:44:04.187Z,40.13
2019-02-26T09:49:12.468Z,39.33
2019-02-26T09:54:40.288Z,36.37
2019-02-26T09:59:45.529Z,34.13
2019-02-26T10:04:51.896Z,38.10
2019-02-26T10:10:01.163Z,39.77
2019-02-26T10:15:12.617Z,36.57
2019-02-26T10:20:31.685Z,34.53
2019-02-26T10:25:38.890Z,34.93
2019-02-26T10:30:45.013Z,37.00
2019-02-26T10:35:51.039Z,33.27
2019-02-26T10:40:59.185Z,33.47
2019-02-26T10:46:06.994Z,33.77
2019-02-26T10:51:16.883Z,38.50
2019-02-26T10:56:23.625Z,38.63
2019-02-26T11:01:31.534Z,41.50
2019-02-26T11:06:43.753Z,30.47
2019-02-26T11:11:50.382Z,30.63
2019-02-26T11:16:57.622Z,29.20
2019-02-26T11:22:05.987Z,29.67
2019-02-26T11:27:14.189Z,30.20
2019-02-26T11:32:20.945Z,28.57
2019-02-26T11:37:29.528Z,29.30
2019-02-26T11:42:37.526Z,22.97
2019-02-26T11:47:45.143Z,26.53
2019-02-26T11:52:54.287Z,24.33
2019-02-26T11:57:59.739Z,29.43
2019-02-26T12:03:06.782Z,22.37
2019-02-26T12:08:16.715Z,26.43
2019-02-26T12:13:27.631Z,23.27
2019-02-26T12:18:34.256Z,24.77
2019-02-26T12:23:44.132Z,22.47
2019-02-26T12:28:49.771Z,18.37
2019-02-26T12:33:57.763Z,21.47
2019-02-26T12:39:07.211Z,25.20
2019-02-26T12:44:16.259Z,20.40
2019-02-26T12:49:23.334Z,17.40
2019-02-26T12:54:33.567Z,21.20
2019-02-26T12:59:39.627Z,23.70
2019-02-26T13:04:48.067Z,24.50
2019-02-26T13:09:56.098Z,23.60
2019-02-26T13:15:05.438Z,28.10
2019-02-26T13:20:22.525Z,34.63
2019-02-26T13:25:29.717Z,27.90
2019-02-26T13:30:37.595Z,24.60
2019-02-26T13:35:46.914Z,25.10
2019-02-26T13:41:02.278Z,29.00
2019-02-26T13:46:03.058Z,25.93
2019-02-26T13:51:10.024Z,25.23
2019-02-26T13:56:17.107Z,21.73
2019-02-26T14:01:24.138Z,23.37
2019-02-26T14:06:32.055Z,24.07
2019-02-26T14:11:41.198Z,20.77
2019-02-26T14:16:48.780Z,23.23
2019-02-26T14:21:57.537Z,23.17
2019-02-26T14:27:06.033Z,26.90
2019-02-26T14:32:17.386Z,29.27
2019-02-26T14:37:28.508Z,24.27
2019-02-26T14:48:31.559Z,25.60
2019-02-26T14:54:06.465Z,26.43
2019-02-26T14:59:15.099Z,27.10
2019-02-26T15:04:41.529Z,26.37
2019-02-26T15:09:48.533Z,21.77
2019-02-26T15:14:56.357Z,24.00
2019-02-26T15:20:04.800Z,23.40
2019-02-26T15:25:20.502Z,26.77
2019-02-26T15:30:27.746Z,27.97
2019-02-26T15:35:34.835Z,23.40
2019-02-26T15:40:43.879Z,26.77
2019-02-26T15:45:52.160Z,28.33
2019-02-26T15:50:59.864Z,27.47
2019-02-26T15:56:08.003Z,25.27
2019-02-26T16:01:16.565Z,22.13
2019-02-26T16:06:22.617Z,26.40
2019-02-26T16:11:30.701Z,24.73
2019-02-26T16:16:37.829Z,23.97
2019-02-26T16:21:45.458Z,23.20
2019-02-26T16:26:52.362Z,24.57
2019-02-26T16:31:59.411Z,21.50
2019-02-26T16:37:07.884Z,22.57
2019-02-26T16:42:15.226Z,27.83
2019-02-26T16:47:22.770Z,34.00
2019-02-26T16:52:30.466Z,31.23
2019-02-26T16:57:37.678Z,28.20
2019-02-26T17:02:44.910Z,32.27
2019-02-26T17:07:51.409Z,27.77
2019-02-26T17:13:05.607Z,28.07
2019-02-26T17:18:12.506Z,37.37
2019-02-26T17:23:20.711Z,27.60
2019-02-26T17:28:28.269Z,31.20
2019-02-26T17:33:35.752Z,24.87
2019-02-26T17:44:17.122Z,27.07
2019-02-26T17:49:33.652Z,25.30
2019-02-26T17:54:49.913Z,25.27
2019-02-26T17:59:58.282Z,26.20
2019-02-26T18:05:07.586Z,30.90
2019-02-26T18:10:18.474Z,32.33
2019-02-26T18:15:26.993Z,29.23
2019-02-26T18:26:32.257Z,33.20
2019-02-26T18:31:40.686Z,29.20
2019-02-26T18:36:47.343Z,30.03
2019-02-26T18:41:54.727Z,38.30
2019-02-26T18:47:06.778Z,31.37
2019-02-26T18:52:11.833Z,33.03
2019-02-26T18:57:18.694Z,36.33
2019-02-26T19:02:25.937Z,34.43
2019-02-26T19:07:33.796Z,35.70
2019-02-26T19:12:41.078Z,35.27
2019-02-26T19:17:50.278Z,37.83
2019-02-26T19:22:58.788Z,34.13
2019-02-26T19:28:05.497Z,31.70
2019-02-26T19:33:13.156Z,29.53
2019-02-26T19:38:20.965Z,34.87
2019-02-26T19:43:28.922Z,28.93
2019-02-26T19:48:36.493Z,32.03
2019-02-26T19:53:43.082Z,25.10
2019-02-26T19:58:49.414Z,26.70
2019-02-26T20:03:55.554Z,28.00
2019-02-26T20:09:05.807Z,29.80
2019-02-26T20:14:14.776Z,34.10
2019-02-26T20:19:22.555Z,42.53
2019-02-26T20:24:30.490Z,41.17
2019-02-26T20:29:40.155Z,43.00
2019-02-26T20:34:46.150Z,42.43
2019-02-26T20:39:52.158Z,48.43
2019-02-26T20:44:59.099Z,47.60
2019-02-26T20:50:10.210Z,53.93
2019-02-26T20:55:21.176Z,55.27
2019-02-26T21:00:28.129Z,62.90
2019-02-26T21:05:35.320Z,61.37
2019-02-26T21:10:42.445Z,59.37
2019-02-26T21:15:48.975Z,63.27
2019-02-26T21:20:56.774Z,55.67
2019-02-26T21:26:03.506Z,55.53
2019-02-26T21:31:09.520Z,56.87
2019-02-26T21:36:18.256Z,52.00
2019-02-26T21:41:25.121Z,51.87
2019-02-26T21:46:32.042Z,48.73
2019-02-26T21:51:38.952Z,48.40
2019-02-26T21:56:48.707Z,44.37
2019-02-26T22:02:18.593Z,58.23
2019-02-26T22:07:23.432Z,52.83
2019-02-26T22:12:30.239Z,59.80
2019-02-26T22:17:37.491Z,60.93
2019-02-26T22:22:44.149Z,54.10
2019-02-26T22:27:51.651Z,59.37
2019-02-26T22:32:57.596Z,60.43
2019-02-26T22:38:03.601Z,61.30
2019-02-26T22:43:13.413Z,59.27
2019-02-26T22:48:17.449Z,60.37
2019-02-26T22:53:23.662Z,64.90
2019-02-26T22:58:29.663Z,60.17
2019-02-26T23:03:37.425Z,57.97
2019-02-26T23:08:44.748Z,66.00
2019-02-26T23:13:54.200Z,60.07
2019-02-26T23:19:03.819Z,65.63
2019-02-26T23:24:11.444Z,63.77
2019-02-26T23:29:19.077Z,62.50
2019-02-26T23:34:25.062Z,61.70
2019-02-26T23:39:31.214Z,64.27
2019-02-26T23:44:57.194Z,63.00
2019-02-26T23:50:05.153Z,60.13
2019-02-26T23:55:33.915Z,63.83
